Time;durP1;ratioP1;P1;durP2;ratioP2;P2;SDS_P1;SDS_P2;PMS_P1;PMS_P2;Temp;Humidity;BMP_temperature;BMP_pressure;BME280_temperature;BME280_humidity;BME280_pressure;Samples;Min_cycle;Max_cycle;Signal;HPM_P1;HPM_P2
2022/01/19 00:00:40;;;;;;;33.50;12.53;;;1.40;99.70;;;;;;5012414;28;20996;-66
2022/01/19 00:03:07;;;;;;;28.90;11.70;;;1.40;99.70;;;;;;5012493;28;20441;-68
2022/01/19 00:05:33;;;;;;;29.93;12.17;;;1.30;99.70;;;;;;5012364;28;20940;-67
2022/01/19 00:08:01;;;;;;;28.40;11.40;;;1.40;99.70;;;;;;5011836;28;20473;-66
2022/01/19 00:10:28;;;;;;;29.13;11.53;;;1.40;99.70;;;;;;5012443;28;20445;-64
2022/01/19 00:12:56;;;;;;;26.20;11.40;;;1.30;99.70;;;;;;5012332;28;20449;-64
2022/01/19 00:15:23;;;;;;;29.27;11.77;;;1.20;99.70;;;;;;5012334;28;20441;-64
2022/01/19 00:17:54;;;;;;;26.07;10.90;;;1.20;99.70;;;;;;5011807;28;20469;-64
2022/01/19 00:20:21;;;;;;;27.57;11.00;;;1.10;99.70;;;;;;5012195;28;20499;-66
2022/01/19 00:22:48;;;;;;;21.53;10.10;;;1.00;99.70;;;;;;5012119;28;20449;-67
2022/01/19 00:25:16;;;;;;;27.97;11.10;;;0.90;99.70;;;;;;5012139;28;20507;-65
2022/01/19 00:27:43;;;;;;;30.07;10.90;;;0.90;99.70;;;;;;5011466;28;20473;-66
2022/01/19 00:30:10;;;;;;;23.70;10.37;;;1.00;99.70;;;;;;5011776;28;20827;-67
2022/01/19 00:32:37;;;;;;;28.63;11.20;;;0.90;99.70;;;;;;5012047;28;20445;-66
2022/01/19 00:35:05;;;;;;;27.50;10.57;;;0.80;99.70;;;;;;5011869;28;20442;-66
2022/01/19 00:37:32;;;;;;;23.83;10.93;;;0.90;99.70;;;;;;5011756;28;20465;-65
2022/01/19 00:39:59;;;;;;;27.70;10.60;;;0.80;99.70;;;;;;5011426;28;20470;-66
2022/01/19 00:42:27;;;;;;;27.83;10.30;;;0.80;99.70;;;;;;5011869;28;20887;-66
2022/01/19 00:44:54;;;;;;;26.20;10.40;;;0.70;99.70;;;;;;5011772;28;20450;-66
2022/01/19 00:47:21;;;;;;;26.53;10.93;;;0.80;99.70;;;;;;5011033;28;20468;-65
2022/01/19 00:49:48;;;;;;;29.47;10.67;;;0.70;99.70;;;;;;5011241;28;20842;-68
2022/01/19 00:52:15;;;;;;;25.67;10.53;;;0.70;99.70;;;;;;5011912;28;20540;-65
2022/01/19 00:54:42;;;;;;;27.17;10.30;;;0.70;99.70;;;;;;5011751;28;20499;-67
2022/01/19 00:57:10;;;;;;;28.57;10.60;;;0.60;99.70;;;;;;5011487;28;20857;-66
2022/01/19 00:59:38;;;;;;;27.67;10.80;;;0.60;99.70;;;;;;5011242;28;20508;-67
2022/01/19 01:02:05;;;;;;;26.67;10.70;;;0.50;99.70;;;;;;5011698;28;20500;-66
2022/01/19 01:04:33;;;;;;;29.80;11.57;;;0.70;99.70;;;;;;5011689;28;20516;-65
2022/01/19 01:07:00;;;;;;;28.23;10.30;;;0.70;99.70;;;;;;5011575;28;20465;-65
2022/01/19 01:09:27;;;;;;;29.17;11.20;;;0.70;99.70;;;;;;5011247;28;20449;-65
2022/01/19 01:12:01;;;;;;;26.30;10.50;;;0.70;99.70;;;;;;5011652;28;20471;-65
2022/01/19 01:19:57;;;;;;;25.70;10.27;;;0.60;99.70;;;;;;5010806;28;20925;-65
2022/01/19 01:22:24;;;;;;;28.53;10.50;;;0.70;99.70;;;;;;5011617;28;20492;-66
2022/01/19 01:24:51;;;;;;;30.07;11.50;;;0.70;99.70;;;;;;5011434;28;20845;-64
2022/01/19 01:27:18;;;;;;;28.73;11.70;;;0.60;99.70;;;;;;5011404;28;20477;-65
2022/01/19 01:29:45;;;;;;;24.67;9.90;;;0.50;99.70;;;;;;5011073;28;20452;-66
2022/01/19 01:32:11;;;;;;;28.43;11.27;;;0.60;99.70;;;;;;5011390;28;20529;-64
2022/01/19 01:34:39;;;;;;;30.23;11.00;;;0.60;99.70;;;;;;5011189;28;20454;-66
2022/01/19 01:37:06;;;;;;;29.43;11.00;;;0.60;99.70;;;;;;5011343;28;20523;-65
2022/01/19 01:39:33;;;;;;;34.93;11.93;;;0.60;99.70;;;;;;5013913;28;20456;-67
2022/01/19 01:42:00;;;;;;;24.53;9.97;;;0.70;99.70;;;;;;5014910;28;20492;-65
2022/01/19 01:44:34;;;;;;;26.17;9.70;;;0.80;99.70;;;;;;5015001;28;20453;-66
2022/01/19 01:47:01;;;;;;;29.37;10.80;;;0.70;99.70;;;;;;5014162;28;20836;-64
2022/01/19 01:49:41;;;;;;;26.17;10.00;;;0.50;99.70;;;;;;5014625;28;20811;-66
2022/01/19 01:54:56;;;;;;;26.53;10.07;;;0.50;99.70;;;;;;4997400;28;20444;-69
2022/01/19 01:57:23;;;;;;;28.00;11.33;;;0.50;99.70;;;;;;5073538;22;20503;-67
2022/01/19 01:59:49;;;;;;;27.57;10.40;;;0.50;99.70;;;;;;5032557;28;20825;-67
2022/01/19 02:02:16;;;;;;;26.90;10.73;;;0.60;99.70;;;;;;5033701;28;21011;-67
2022/01/19 02:04:43;;;;;;;28.87;10.50;;;0.60;99.70;;;;;;5034410;28;20444;-67
2022/01/19 02:07:32;;;;;;;26.67;10.70;;;0.60;99.70;;;;;;5034189;28;20477;-67
2022/01/19 02:10:02;;;;;;;28.93;11.00;;;0.50;99.70;;;;;;5034181;28;20526;-67
2022/01/19 02:23:33;;;;;;;25.20;10.73;;;1.00;99.70;;;;;;5034193;28;20423;-67
2022/01/19 02:26:04;;;;;;;25.77;11.00;;;1.00;99.70;;;;;;5033987;28;20484;-67
2022/01/19 02:42:23;;;;;;;30.83;11.77;;;1.10;99.70;;;;;;5033840;28;21148;-67
2022/01/19 02:50:18;;;;;;;28.87;10.70;;;1.00;99.70;;;;;;5033486;28;20831;-67
2022/01/19 02:52:46;;;;;;;25.73;10.30;;;0.80;99.70;;;;;;5033484;28;20448;-68
2022/01/19 02:55:13;;;;;;;28.30;11.73;;;0.70;99.70;;;;;;5033516;28;20441;-67
2022/01/19 02:57:41;;;;;;;28.47;10.97;;;0.80;99.70;;;;;;5033026;28;20546;-64
2022/01/19 03:08:44;;;;;;;32.83;11.53;;;0.50;99.70;;;;;;5032927;28;20436;-67
2022/01/19 03:11:12;;;;;;;33.83;11.97;;;0.40;99.70;;;;;;5033097;28;20943;-67
2022/01/19 03:13:39;;;;;;;30.10;11.73;;;0.30;99.70;;;;;;5033286;28;20440;-67
2022/01/19 03:16:05;;;;;;;29.20;12.57;;;0.30;99.70;;;;;;5033150;28;20490;-67
2022/01/19 03:18:32;;;;;;;29.13;12.10;;;0.30;99.70;;;;;;5032421;28;20991;-66
2022/01/19 03:20:59;;;;;;;33.37;13.13;;;0.20;99.70;;;;;;5032915;28;20483;-67
2022/01/19 03:23:27;;;;;;;27.77;11.20;;;0.40;99.70;;;;;;5032949;28;20844;-67
2022/01/19 03:25:54;;;;;;;32.53;12.67;;;0.30;99.70;;;;;;5032751;28;20445;-67
2022/01/19 03:28:21;;;;;;;37.00;12.17;;;0.30;99.70;;;;;;5032324;28;20519;-67
2022/01/19 03:30:48;;;;;;;34.30;12.50;;;0.20;99.70;;;;;;5032740;28;20451;-67
2022/01/19 03:33:15;;;;;;;32.23;12.20;;;0.20;99.70;;;;;;5032699;28;20527;-67
2022/01/19 03:35:43;;;;;;;28.87;12.73;;;0.10;99.70;;;;;;5032782;28;20444;-67
2022/01/19 03:38:10;;;;;;;34.13;12.40;;;0.10;99.70;;;;;;5032197;28;20856;-68
2022/01/19 03:40:39;;;;;;;31.27;12.93;;;0.10;99.70;;;;;;5032702;28;20932;-67
2022/01/19 03:43:06;;;;;;;30.73;13.10;;;0.20;99.70;;;;;;5032521;28;20444;-67
2022/01/19 03:45:34;;;;;;;31.40;12.30;;;0.20;99.70;;;;;;5032601;28;20871;-68
2022/01/19 03:48:18;;;;;;;30.27;11.57;;;0.20;99.70;;;;;;5031103;28;21066;-67
2022/01/19 03:50:45;;;;;;;40.00;13.53;;;0.20;99.70;;;;;;5032572;28;20471;-69
2022/01/19 03:53:12;;;;;;;36.77;13.33;;;0.30;99.70;;;;;;5032261;28;20448;-67
2022/01/19 03:55:40;;;;;;;35.93;13.23;;;0.30;99.70;;;;;;5032374;28;20448;-67
2022/01/19 03:58:07;;;;;;;31.93;12.93;;;0.40;99.70;;;;;;5031618;28;20483;-67
2022/01/19 04:00:35;;;;;;;34.07;11.83;;;1.00;99.70;;;;;;5031566;28;20448;-68
2022/01/19 04:03:05;;;;;;;23.80;10.50;;;1.00;99.70;;;;;;5032209;28;20448;-67
2022/01/19 04:05:41;;;;;;;28.87;11.67;;;1.40;99.70;;;;;;5032122;28;20525;-68
2022/01/19 04:08:09;;;;;;;32.00;11.57;;;1.20;99.70;;;;;;5031531;28;20487;-67
2022/01/19 04:10:35;;;;;;;27.77;11.40;;;1.00;99.70;;;;;;5032141;28;20475;-67
2022/01/19 04:13:12;;;;;;;27.80;11.53;;;0.70;99.70;;;;;;5031895;28;20451;-67
2022/01/19 04:15:39;;;;;;;29.00;10.40;;;0.60;99.70;;;;;;5031991;28;20955;-68
2022/01/19 04:18:06;;;;;;;31.20;11.40;;;0.50;99.70;;;;;;5031435;28;20469;-67
2022/01/19 04:20:40;;;;;;;34.10;11.40;;;0.50;99.70;;;;;;5031845;28;20432;-67
2022/01/19 04:23:07;;;;;;;28.73;11.13;;;0.40;99.70;;;;;;5031872;28;20431;-68
2022/01/19 04:25:34;;;;;;;24.83;11.43;;;0.90;99.70;;;;;;5031764;28;20496;-67
2022/01/19 04:28:07;;;;;;;27.87;11.10;;;1.30;99.70;;;;;;5031225;28;20468;-68
2022/01/19 04:30:35;;;;;;;29.97;11.53;;;1.10;99.70;;;;;;5031731;28;20540;-68
2022/01/19 04:33:07;;;;;;;27.70;11.10;;;1.20;99.70;;;;;;5031715;28;20440;-67
2022/01/19 04:35:44;;;;;;;27.90;10.73;;;1.10;99.70;;;;;;5031824;28;20467;-67
2022/01/19 04:44:10;;;;;;;30.43;12.07;;;0.20;99.70;;;;;;5031731;28;20551;-67
2022/01/19 04:47:08;;;;;;;34.80;11.37;;;0.10;99.70;;;;;;5030868;28;20437;-63
2022/01/19 05:03:25;;;;;;;31.73;11.90;;;0.20;99.70;;;;;;5031478;28;20416;-67
2022/01/19 05:05:57;;;;;;;28.43;11.80;;;0.20;99.70;;;;;;5031387;28;20448;-67
2022/01/19 05:08:44;;;;;;;26.07;11.97;;;0.20;99.70;;;;;;5031115;28;20461;-67
2022/01/19 05:13:55;;;;;;;30.93;12.20;;;0.20;99.70;;;;;;5035085;28;20796;-66
2022/01/19 05:16:22;;;;;;;30.37;12.13;;;0.20;99.70;;;;;;5035323;28;20874;-67
2022/01/19 05:18:51;;;;;;;33.67;12.77;;;0.20;99.70;;;;;;5034664;28;20479;-66
2022/01/19 05:21:19;;;;;;;28.40;11.47;;;0.20;99.70;;;;;;5035232;28;20480;-66
2022/01/19 05:23:45;;;;;;;26.93;11.00;;;0.20;99.70;;;;;;5035082;28;20455;-67
2022/01/19 05:26:12;;;;;;;29.80;11.33;;;0.20;99.70;;;;;;5035166;28;20829;-67
2022/01/19 05:28:40;;;;;;;26.77;10.57;;;0.30;99.70;;;;;;5034468;28;20472;-67
2022/01/19 05:31:07;;;;;;;27.00;10.43;;;0.50;99.70;;;;;;5035065;28;20449;-67
2022/01/19 05:33:34;;;;;;;26.80;10.70;;;0.40;99.70;;;;;;5034990;28;20826;-67
2022/01/19 05:36:02;;;;;;;27.13;11.37;;;0.30;99.70;;;;;;5034921;28;20440;-66
2022/01/19 05:38:29;;;;;;;30.93;11.73;;;0.20;99.70;;;;;;5034453;28;20483;-67
2022/01/19 05:40:56;;;;;;;31.30;11.30;;;0.00;99.70;;;;;;5034948;28;20972;-67
2022/01/19 05:43:23;;;;;;;31.80;13.37;;;-0.20;99.70;;;;;;5034770;28;20428;-67
2022/01/19 05:45:50;;;;;;;35.77;13.70;;;-0.10;99.70;;;;;;5028914;28;20491;-67
2022/01/19 05:48:17;;;;;;;41.17;13.60;;;-0.10;99.70;;;;;;5025613;28;20839;-67
2022/01/19 05:50:43;;;;;;;29.40;12.47;;;-0.20;99.70;;;;;;5030819;28;20953;-67
2022/01/19 05:53:13;;;;;;;34.30;13.23;;;-0.30;99.70;;;;;;5028985;28;20445;-67
2022/01/19 05:55:39;;;;;;;28.80;12.40;;;-0.40;99.70;;;;;;5029250;28;20501;-67
2022/01/19 05:58:06;;;;;;;31.67;12.77;;;-0.50;99.70;;;;;;5021874;28;20503;-67
2022/01/19 06:00:33;;;;;;;26.37;11.10;;;-0.40;99.70;;;;;;5025444;28;20461;-67
2022/01/19 06:02:59;;;;;;;29.90;11.73;;;-0.60;99.70;;;;;;5028892;28;20871;-67
2022/01/19 06:05:26;;;;;;;30.47;12.30;;;-0.70;99.70;;;;;;5034132;28;20863;-67
2022/01/19 06:08:09;;;;;;;30.17;12.57;;;-0.60;99.70;;;;;;5025535;28;20491;-67
2022/01/19 06:10:46;;;;;;;32.57;12.57;;;-0.60;99.70;;;;;;5026365;28;20464;-67
2022/01/19 06:13:15;;;;;;;32.47;12.67;;;-0.60;99.70;;;;;;5033103;28;20448;-67
2022/01/19 06:15:42;;;;;;;37.80;14.10;;;-0.40;99.70;;;;;;5032051;28;20502;-68
2022/01/19 06:18:09;;;;;;;32.17;12.37;;;-0.30;99.70;;;;;;5031638;28;20464;-67
2022/01/19 06:20:36;;;;;;;43.83;15.43;;;-0.10;99.70;;;;;;5031708;28;20448;-67
2022/01/19 06:23:03;;;;;;;33.00;12.30;;;-0.20;99.70;;;;;;5032211;28;21085;-67
2022/01/19 06:25:30;;;;;;;31.03;12.13;;;0.00;99.70;;;;;;5031361;28;20448;-67
2022/01/19 06:27:59;;;;;;;30.23;12.70;;;0.00;99.70;;;;;;5031944;28;20465;-67
2022/01/19 06:30:26;;;;;;;38.10;14.27;;;0.00;99.70;;;;;;5033895;28;20451;-67
2022/01/19 06:32:52;;;;;;;45.63;15.93;;;0.20;99.70;;;;;;5033871;28;20712;-67
2022/01/19 06:35:19;;;;;;;71.27;19.77;;;0.20;99.70;;;;;;5033555;28;20929;-67
2022/01/19 06:37:46;;;;;;;49.97;16.03;;;0.40;99.70;;;;;;5033296;28;20479;-65
2022/01/19 06:40:15;;;;;;;39.03;14.47;;;0.50;99.70;;;;;;5033639;28;20892;-67
2022/01/19 06:42:42;;;;;;;48.63;15.80;;;0.60;99.70;;;;;;5033407;28;20488;-68
2022/01/19 06:45:12;;;;;;;37.53;14.40;;;0.60;99.70;;;;;;5033143;28;20441;-67
2022/01/19 06:47:39;;;;;;;41.90;13.73;;;0.60;99.70;;;;;;5032635;28;20844;-68
2022/01/19 06:50:08;;;;;;;32.67;12.90;;;0.70;99.70;;;;;;5033284;28;20448;-67
2022/01/19 06:52:35;;;;;;;34.60;12.60;;;0.80;99.70;;;;;;5033493;28;20471;-67
2022/01/19 06:55:02;;;;;;;38.60;13.10;;;0.80;99.70;;;;;;5033280;28;20829;-67
2022/01/19 06:57:29;;;;;;;32.57;13.47;;;0.80;99.70;;;;;;5033127;28;20465;-67
2022/01/19 06:59:55;;;;;;;34.90;13.33;;;0.80;99.70;;;;;;5031286;28;21197;-67
2022/01/19 07:02:23;;;;;;;40.27;15.37;;;0.80;99.70;;;;;;5026414;28;20488;-67
2022/01/19 07:04:50;;;;;;;36.63;13.30;;;0.80;99.70;;;;;;5030770;28;20860;-67
2022/01/19 07:07:17;;;;;;;35.67;13.67;;;0.80;99.70;;;;;;5029935;28;20454;-66
2022/01/19 07:09:45;;;;;;;32.93;13.23;;;0.70;99.70;;;;;;5021522;28;20457;-67
2022/01/19 07:12:13;;;;;;;37.50;12.40;;;0.60;99.70;;;;;;5015420;28;20445;-67
2022/01/19 07:14:40;;;;;;;29.23;12.30;;;0.50;99.70;;;;;;5013921;28;20503;-67
2022/01/19 07:17:07;;;;;;;31.47;12.40;;;0.40;99.70;;;;;;5015330;28;20897;-67
2022/01/19 07:19:35;;;;;;;29.83;12.03;;;0.30;99.70;;;;;;5013878;28;20846;-67
2022/01/19 07:22:01;;;;;;;34.53;13.43;;;0.30;99.70;;;;;;5015252;28;20485;-68
2022/01/19 07:24:28;;;;;;;34.37;14.27;;;0.20;99.70;;;;;;5014097;28;20476;-67
2022/01/19 07:26:55;;;;;;;43.10;15.30;;;0.30;99.70;;;;;;5014473;28;20856;-67
2022/01/19 07:29:22;;;;;;;45.40;16.03;;;0.30;99.70;;;;;;5014181;28;20473;-67
2022/01/19 07:31:48;;;;;;;55.93;17.53;;;0.30;99.70;;;;;;5014072;28;20449;-67
2022/01/19 07:34:15;;;;;;;43.77;17.20;;;0.20;99.70;;;;;;5015200;28;20441;-67
2022/01/19 07:36:43;;;;;;;38.23;15.10;;;0.20;99.70;;;;;;5012642;28;20496;-67
2022/01/19 07:39:10;;;;;;;34.77;13.20;;;0.20;99.70;;;;;;5013823;28;20470;-67
2022/01/19 07:41:38;;;;;;;32.60;12.70;;;0.10;99.70;;;;;;5013680;28;20457;-67
2022/01/19 07:44:05;;;;;;;36.50;13.83;;;0.10;99.70;;;;;;5014949;28;20450;-67
2022/01/19 07:46:31;;;;;;;36.70;13.67;;;0.20;99.70;;;;;;5013553;28;20453;-67
2022/01/19 07:48:58;;;;;;;30.67;13.60;;;0.10;99.70;;;;;;5013877;28;20476;-67
2022/01/19 07:51:25;;;;;;;28.73;12.97;;;0.00;99.70;;;;;;5013793;28;20822;-67
2022/01/19 07:53:53;;;;;;;34.33;13.07;;;0.00;99.70;;;;;;5014854;28;20887;-67
2022/01/19 07:56:20;;;;;;;29.70;12.43;;;0.00;99.70;;;;;;5013479;28;20507;-67
2022/01/19 07:58:46;;;;;;;30.10;12.47;;;0.10;99.70;;;;;;5015213;28;20484;-67
2022/01/19 08:01:13;;;;;;;29.83;11.50;;;0.10;99.70;;;;;;5030386;28;20872;-67
2022/01/19 08:03:40;;;;;;;32.63;12.27;;;0.30;99.70;;;;;;5018891;28;20568;-67
2022/01/19 08:06:07;;;;;;;32.47;13.10;;;0.50;99.70;;;;;;5013444;28;20449;-68
2022/01/19 08:08:35;;;;;;;31.47;11.70;;;0.50;99.70;;;;;;5013353;28;20476;-68
2022/01/19 08:11:03;;;;;;;37.60;12.53;;;0.50;99.70;;;;;;5013787;28;20454;-68
2022/01/19 08:13:30;;;;;;;31.53;12.13;;;0.60;99.70;;;;;;5013333;28;20449;-68
2022/01/19 08:15:57;;;;;;;40.13;13.30;;;0.70;99.70;;;;;;5013852;28;20456;-67
2022/01/19 08:18:24;;;;;;;29.57;12.70;;;0.70;99.70;;;;;;5012834;28;20524;-67
2022/01/19 08:20:50;;;;;;;39.00;13.80;;;0.60;99.70;;;;;;5014324;28;20480;-67
2022/01/19 08:23:17;;;;;;;34.13;13.20;;;0.70;99.70;;;;;;5013159;28;21012;-67
2022/01/19 08:25:44;;;;;;;34.17;12.80;;;0.70;99.70;;;;;;5014279;28;20829;-67
2022/01/19 08:28:12;;;;;;;33.17;12.60;;;0.70;99.70;;;;;;5012163;28;20465;-67
2022/01/19 08:30:38;;;;;;;35.47;12.90;;;0.80;99.70;;;;;;5014295;28;20452;-68
2022/01/19 08:33:05;;;;;;;33.83;12.90;;;0.80;99.70;;;;;;5013137;28;20468;-68
2022/01/19 08:35:32;;;;;;;36.27;12.23;;;0.80;99.70;;;;;;5014156;28;20472;-67
2022/01/19 08:37:59;;;;;;;32.70;12.20;;;0.90;99.70;;;;;;5012280;28;20473;-67
2022/01/19 08:40:28;;;;;;;33.20;13.20;;;0.90;99.70;;;;;;5014079;28;20453;-67
2022/01/19 08:42:55;;;;;;;33.70;12.20;;;1.00;99.70;;;;;;5012856;28;20836;-67
2022/01/19 08:45:24;;;;;;;35.10;12.87;;;1.00;99.70;;;;;;5013873;28;20949;-67
2022/01/19 08:47:51;;;;;;;34.37;12.87;;;1.10;99.70;;;;;;5011237;28;20470;-68
2022/01/19 08:50:18;;;;;;;32.00;12.23;;;1.00;99.70;;;;;;5013582;28;20995;-67
2022/01/19 08:52:46;;;;;;;35.63;12.90;;;1.10;99.70;;;;;;5012930;28;20449;-67
2022/01/19 08:55:14;;;;;;;33.57;11.97;;;1.20;99.70;;;;;;5013000;28;20495;-67
2022/01/19 08:57:42;;;;;;;30.40;12.67;;;1.30;99.70;;;;;;5013293;28;20469;-67
2022/01/19 09:00:13;;;;;;;30.17;11.33;;;1.20;99.70;;;;;;5022605;28;20543;-67
2022/01/19 09:02:41;;;;;;;28.33;12.27;;;1.20;99.70;;;;;;5028590;28;20507;-67
2022/01/19 09:05:08;;;;;;;30.53;12.30;;;1.10;99.70;;;;;;5029537;28;20444;-67
2022/01/19 09:07:35;;;;;;;34.33;12.47;;;1.20;99.70;;;;;;5013642;28;20528;-67
2022/01/19 09:10:02;;;;;;;27.00;11.50;;;1.30;99.70;;;;;;5011724;28;20453;-67
2022/01/19 09:12:29;;;;;;;29.53;11.90;;;1.70;99.70;;;;;;5013646;28;20452;-68
2022/01/19 09:14:56;;;;;;;31.30;12.47;;;1.50;99.70;;;;;;5012389;28;20822;-68
2022/01/19 09:17:22;;;;;;;29.00;11.70;;;1.40;99.70;;;;;;5013655;28;20457;-67
2022/01/19 09:19:50;;;;;;;34.30;11.57;;;1.50;99.70;;;;;;5012219;28;20460;-67
2022/01/19 09:22:17;;;;;;;25.63;11.33;;;1.60;99.70;;;;;;5013589;28;20947;-67
2022/01/19 09:24:44;;;;;;;36.67;12.77;;;1.60;99.70;;;;;;5012287;28;20457;-67
2022/01/19 09:27:13;;;;;;;36.23;12.90;;;1.50;99.70;;;;;;5013460;28;20450;-67
2022/01/19 09:29:42;;;;;;;35.43;11.93;;;1.50;99.70;;;;;;5011990;28;20449;-67
2022/01/19 09:32:11;;;;;;;34.10;14.20;;;1.50;99.70;;;;;;5012989;28;20490;-67
2022/01/19 09:34:39;;;;;;;29.77;12.03;;;1.50;99.70;;;;;;5011835;28;20452;-68
2022/01/19 09:37:07;;;;;;;28.53;12.43;;;1.60;99.70;;;;;;5013333;28;20449;-67
2022/01/19 09:39:34;;;;;;;34.90;12.90;;;1.60;99.70;;;;;;5011913;28;20543;-68
2022/01/19 09:42:01;;;;;;;30.03;12.23;;;1.80;99.70;;;;;;5019402;28;20451;-67
2022/01/19 09:44:29;;;;;;;33.13;12.20;;;1.70;99.70;;;;;;5030511;28;20487;-67
2022/01/19 09:46:57;;;;;;;58.83;14.90;;;1.70;99.70;;;;;;5030373;28;20833;-67
2022/01/19 09:49:24;;;;;;;36.43;12.87;;;1.80;99.70;;;;;;5030294;28;20464;-68
2022/01/19 09:51:53;;;;;;;33.90;13.07;;;2.00;99.70;;;;;;5030697;28;20876;-67
2022/01/19 09:54:23;;;;;;;33.50;13.00;;;2.00;99.70;;;;;;5030412;28;20440;-67
2022/01/19 09:56:50;;;;;;;35.23;13.27;;;2.00;99.70;;;;;;5030387;28;20455;-64
2022/01/19 09:59:17;;;;;;;33.73;12.20;;;2.10;99.70;;;;;;5031031;28;20496;-68
2022/01/19 10:01:52;;;;;;;30.23;12.03;;;2.20;99.70;;;;;;5034198;28;20950;-68
2022/01/19 10:04:21;;;;;;;31.47;12.40;;;2.30;99.70;;;;;;5034127;28;20537;-67
2022/01/19 10:06:47;;;;;;;35.23;13.50;;;2.50;99.70;;;;;;5034257;28;20449;-67
2022/01/19 10:09:23;;;;;;;33.77;12.87;;;2.40;99.70;;;;;;5033706;28;20476;-68
2022/01/19 10:17:19;;;;;;;32.83;13.03;;;2.50;99.70;;;;;;5034306;28;20443;-67
2022/01/19 10:19:49;;;;;;;29.50;12.00;;;2.40;99.70;;;;;;5033688;28;20967;-67
2022/01/19 10:22:18;;;;;;;30.47;11.93;;;2.50;99.70;;;;;;5034059;28;20448;-68
2022/01/19 10:24:51;;;;;;;31.50;13.07;;;2.70;99.70;;;;;;5033882;28;21021;-68
2022/01/19 10:27:22;;;;;;;32.03;12.97;;;2.60;99.70;;;;;;5034045;28;20715;-68
2022/01/19 10:29:50;;;;;;;30.83;12.40;;;2.60;99.70;;;;;;5033492;28;20506;-67
2022/01/19 10:32:16;;;;;;;31.40;13.00;;;2.60;99.70;;;;;;5033915;28;20455;-67
2022/01/19 10:34:43;;;;;;;39.87;13.63;;;2.80;99.70;;;;;;5033657;28;20447;-68
2022/01/19 10:37:10;;;;;;;26.00;12.10;;;2.80;99.70;;;;;;5033747;28;20452;-67
2022/01/19 10:39:42;;;;;;;30.60;12.70;;;2.90;99.70;;;;;;5033168;28;20440;-68
2022/01/19 10:42:12;;;;;;;26.60;11.23;;;2.90;99.70;;;;;;5033770;28;20888;-67
2022/01/19 10:44:43;;;;;;;31.33;12.33;;;3.00;99.70;;;;;;5033390;28;20472;-67
2022/01/19 10:47:11;;;;;;;37.07;12.13;;;3.10;99.70;;;;;;5033227;28;20441;-68
2022/01/19 10:49:52;;;;;;;32.90;11.90;;;3.30;99.70;;;;;;5033085;28;20511;-68
2022/01/19 10:52:33;;;;;;;34.90;12.27;;;3.40;99.70;;;;;;5033371;28;20881;-67
2022/01/19 10:55:01;;;;;;;28.50;12.00;;;3.30;99.70;;;;;;5032735;28;20461;-68
2022/01/19 10:57:29;;;;;;;30.57;12.00;;;3.30;99.70;;;;;;5033188;28;20445;-68
2022/01/19 11:00:15;;;;;;;35.60;12.97;;;3.50;99.70;;;;;;5033027;28;20498;-68
2022/01/19 11:02:44;;;;;;;28.10;11.03;;;3.50;99.70;;;;;;5033176;28;20445;-68
2022/01/19 11:05:11;;;;;;;27.97;11.63;;;3.60;99.70;;;;;;5033273;28;20495;-68
2022/01/19 11:07:38;;;;;;;26.60;12.13;;;3.60;99.70;;;;;;5033129;28;20464;-67
2022/01/19 11:10:10;;;;;;;34.67;12.77;;;3.60;99.70;;;;;;5032744;28;20556;-68
2022/01/19 11:12:44;;;;;;;35.20;13.00;;;3.50;99.70;;;;;;5033263;28;20456;-67
2022/01/19 11:15:13;;;;;;;33.70;11.30;;;3.50;99.70;;;;;;5032928;28;20538;-67
2022/01/19 11:17:41;;;;;;;23.90;10.90;;;3.40;99.70;;;;;;5032730;28;20465;-65
2022/01/19 11:20:11;;;;;;;31.47;12.10;;;3.70;99.70;;;;;;5032724;28;20970;-67
2022/01/19 11:22:50;;;;;;;30.20;10.93;;;3.70;99.70;;;;;;5033028;28;20471;-67
2022/01/19 11:25:25;;;;;;;24.50;10.70;;;3.70;99.70;;;;;;5032711;28;20464;-68
2022/01/19 11:27:52;;;;;;;26.50;11.27;;;3.90;99.70;;;;;;5032433;28;20460;-67
2022/01/19 11:30:23;;;;;;;26.37;10.50;;;4.00;99.70;;;;;;5032698;28;20447;-68
2022/01/19 11:33:14;;;;;;;26.33;11.10;;;4.00;99.70;;;;;;5032737;28;20451;-68
2022/01/19 11:35:42;;;;;;;25.27;10.73;;;3.90;99.70;;;;;;5032552;28;20452;-68
2022/01/19 11:38:33;;;;;;;28.20;10.63;;;4.00;99.70;;;;;;5032174;28;20522;-67
2022/01/19 11:41:00;;;;;;;22.47;10.10;;;4.00;99.70;;;;;;5032528;28;20832;-67
2022/01/19 11:43:31;;;;;;;21.57;10.13;;;4.00;99.70;;;;;;5032428;28;20480;-67
2022/01/19 11:46:02;;;;;;;25.73;10.73;;;4.10;99.70;;;;;;5032212;28;20452;-67
2022/01/19 11:48:31;;;;;;;25.00;10.00;;;4.20;99.70;;;;;;5031727;28;20840;-68
2022/01/19 11:51:25;;;;;;;23.70;9.77;;;4.20;99.70;;;;;;5032348;28;20482;-68
2022/01/19 11:54:09;;;;;;;23.33;9.90;;;4.30;99.70;;;;;;5031998;28;20833;-68
2022/01/19 11:57:09;;;;;;;25.07;11.13;;;4.30;99.70;;;;;;5032512;28;20448;-67
2022/01/19 12:00:07;;;;;;;23.43;11.03;;;4.40;99.70;;;;;;5031725;28;20457;-67
2022/01/19 12:02:38;;;;;;;24.67;10.90;;;4.50;99.70;;;;;;5032273;28;20681;-67
2022/01/19 12:05:29;;;;;;;24.03;11.20;;;4.50;99.70;;;;;;5031893;28;20480;-68
2022/01/19 12:07:59;;;;;;;22.43;9.97;;;4.50;99.70;;;;;;5031730;28;20849;-68
2022/01/19 12:10:47;;;;;;;24.60;11.17;;;4.50;99.70;;;;;;5032073;28;20815;-67
2022/01/19 12:13:29;;;;;;;24.07;10.80;;;4.50;99.70;;;;;;5032192;28;20483;-68
2022/01/19 12:16:00;;;;;;;24.37;10.87;;;4.70;99.70;;;;;;5031912;28;20880;-67
2022/01/19 12:18:41;;;;;;;20.47;10.70;;;4.70;99.70;;;;;;5030813;28;20570;-68
2022/01/19 12:21:09;;;;;;;23.10;10.40;;;4.70;99.70;;;;;;5031692;28;20448;-68
2022/01/19 12:23:39;;;;;;;24.90;10.77;;;4.80;99.70;;;;;;5031311;28;20483;-68
2022/01/19 12:26:07;;;;;;;22.37;10.70;;;4.80;99.70;;;;;;5031525;28;20452;-67
2022/01/19 12:28:42;;;;;;;25.07;11.17;;;4.90;99.70;;;;;;5031431;28;20465;-67
2022/01/19 12:31:32;;;;;;;26.20;11.60;;;4.90;99.70;;;;;;5031310;28;20506;-68
2022/01/19 12:34:21;;;;;;;31.93;12.00;;;5.00;99.70;;;;;;5031671;28;20449;-68
2022/01/19 12:36:52;;;;;;;158.57;45.20;;;5.10;99.70;;;;;;5031391;28;20503;-67
2022/01/19 12:39:42;;;;;;;43.80;17.37;;;5.00;99.70;;;;;;5031186;28;20469;-68
2022/01/19 12:42:15;;;;;;;33.53;12.57;;;5.00;99.70;;;;;;5031432;28;20437;-68
2022/01/19 12:44:45;;;;;;;25.83;11.57;;;5.00;99.70;;;;;;5031365;28;20535;-67
2022/01/19 12:47:47;;;;;;;30.70;12.83;;;4.90;99.70;;;;;;5031094;28;20453;-67
2022/01/19 12:50:47;;;;;;;28.57;12.70;;;5.00;99.70;;;;;;5031285;28;20943;-67
2022/01/19 12:53:25;;;;;;;29.50;12.40;;;4.80;99.70;;;;;;5031437;28;20449;-67
2022/01/19 12:55:56;;;;;;;32.47;13.50;;;4.70;99.70;;;;;;5031261;28;20452;-67
2022/01/19 12:58:29;;;;;;;29.37;11.73;;;4.70;99.70;;;;;;5030784;28;20999;-67
2022/01/19 13:00:59;;;;;;;33.07;13.33;;;4.60;99.70;;;;;;5031186;28;20448;-67
2022/01/19 13:03:32;;;;;;;29.93;11.97;;;4.60;99.70;;;;;;5030588;28;20991;-67
2022/01/19 13:06:03;;;;;;;31.20;13.07;;;4.60;99.70;;;;;;5031079;28;20587;-68
2022/01/19 13:08:34;;;;;;;30.30;12.00;;;4.60;99.70;;;;;;5030918;28;20464;-68
2022/01/19 13:11:10;;;;;;;29.83;11.60;;;4.50;99.70;;;;;;5028502;28;20551;-68
2022/01/19 13:13:47;;;;;;;35.20;14.17;;;4.60;99.70;;;;;;5024236;28;20484;-68
2022/01/19 13:16:25;;;;;;;31.50;12.90;;;4.60;99.70;;;;;;5012353;28;20457;-68
2022/01/19 13:18:51;;;;;;;32.73;13.13;;;4.70;99.70;;;;;;5013114;28;20465;-68
2022/01/19 13:21:21;;;;;;;25.83;11.77;;;4.70;99.70;;;;;;5012430;28;20449;-67
2022/01/19 13:23:55;;;;;;;25.80;10.70;;;4.60;99.70;;;;;;5013687;28;20481;-67
2022/01/19 13:26:23;;;;;;;25.50;11.23;;;4.60;99.70;;;;;;5012326;28;20519;-68
2022/01/19 13:28:50;;;;;;;27.47;11.67;;;4.50;99.70;;;;;;5012876;28;20478;-67
2022/01/19 13:31:19;;;;;;;28.70;10.97;;;4.60;99.70;;;;;;5012308;28;20472;-68
2022/01/19 13:33:54;;;;;;;28.87;11.90;;;4.80;99.70;;;;;;5015532;28;20831;-68
2022/01/19 13:36:27;;;;;;;30.93;11.47;;;4.90;99.70;;;;;;5016259;28;20873;-67
2022/01/19 13:38:54;;;;;;;30.13;12.30;;;5.00;99.70;;;;;;5017055;28;20472;-68
2022/01/19 13:41:22;;;;;;;27.80;12.23;;;5.10;99.70;;;;;;5016206;28;20936;-68
2022/01/19 13:43:49;;;;;;;24.90;13.50;;;5.10;99.70;;;;;;5016687;28;21014;-67
2022/01/19 13:46:22;;;;;;;25.13;11.67;;;5.10;99.70;;;;;;5016124;28;20445;-68
2022/01/19 13:48:56;;;;;;;29.83;12.63;;;5.10;99.70;;;;;;5016460;28;20527;-67
2022/01/19 13:51:24;;;;;;;27.77;12.77;;;5.20;99.70;;;;;;5016075;28;20456;-68
2022/01/19 13:53:53;;;;;;;27.43;12.10;;;5.30;99.70;;;;;;5017314;28;20448;-67
2022/01/19 13:56:25;;;;;;;27.50;11.57;;;5.30;99.70;;;;;;5015821;28;20445;-68
2022/01/19 13:58:57;;;;;;;26.30;12.77;;;5.40;99.70;;;;;;5018655;28;20484;-68
2022/01/19 14:01:33;;;;;;;32.10;11.70;;;5.40;99.70;;;;;;5024820;28;20460;-68
2022/01/19 14:04:05;;;;;;;22.83;10.80;;;5.40;99.70;;;;;;5030132;28;21010;-67